• Join FlightAware (Why Join?)
  • Login
  • US Flag 
01:16PM EDT


 

Airport Tracker/Info


-or-


 

Live Flight TrackerFlight Track Log ✈ N260NC ✈ 15-Jun-2013 ✈ KMGY - 1H0

Flight Track Log - Related Links

Times and Time Zones

All times are in EDT time to prevent confusion due to time zone crossing. See the N260NC flight status page for this flight to view local times or setup timezone preferences in your user account.

Time Position Orientation Groundspeed Altitude Reporting Facility
EDT Latitude Longitude Course Direction KTS MPH feet Rate Location/Type
03:25PM 39.5767 -84.2342 182° South 99 114 1,400  Level Indianapolis Center
03:27PM 39.5228 -84.2367 182° South 101 116 2,800 600 Climbing Indianapolis Center
03:28PM 39.4944 -84.2358 179° South 101 116 3,400 540 Climbing Indianapolis Center
03:29PM 39.4636 -84.2331 176° South 105 121 4,000 480 Climbing Indianapolis Center
03:30PM 39.4369 -84.2503 207° Southwest 116 133 4,400 480 Climbing Indianapolis Center
03:31PM 39.4358 -84.2917 268° West 115 132 5,100 660 Climbing Indianapolis Center
03:32PM 39.4364 -84.3411 271° West 116 133 5,800 420 Climbing Indianapolis Center
03:33PM 39.4322 -84.3850 263° West 120 138 6,000 120 Climbing Indianapolis Center
03:34PM 39.4278 -84.4361 264° West 137 158 6,100  Climbing Indianapolis Center
03:35PM 39.4233 -84.4889 264° West 145 167 6,100  Level Indianapolis Center
03:36PM 39.4172 -84.5425 262° West 148 170 6,200 240 Climbing Indianapolis Center
03:37PM 39.4147 -84.5919 266° West 139 160 6,600 360 Climbing Indianapolis Center
03:38PM 39.4103 -84.6386 263° West 132 152 7,000 360 Climbing Indianapolis Center
03:39PM 39.4072 -84.6808 265° West 122 140 7,400 420 Climbing Indianapolis Center
03:40PM 39.4011 -84.7206 259° West 114 131 7,900 240 Climbing Indianapolis Center
03:41PM 39.3983 -84.7703 266° West 117 135 8,000 60 Climbing Indianapolis Center
03:42PM 39.3911 -84.8167 259° West 127 146 8,100  Climbing Indianapolis Center
03:43PM 39.3875 -84.8653 265° West 132 152 8,000 -60 Descending Indianapolis Center
03:44PM 39.3842 -84.9142 265° West 135 155 8,000  Level Indianapolis Center
03:45PM 39.3814 -84.9617 266° West 133 153 8,000  Level Indianapolis Center
03:46PM 39.3756 -85.0106 261° West 137 158 8,000  Level Indianapolis Center
03:47PM 39.3706 -85.0561 262° West 132 152 8,000  Level Indianapolis Center
03:48PM 39.3675 -85.1039 265° West 133 153 8,000  Level Indianapolis Center
03:49PM 39.3628 -85.1594 264° West 130 150 8,000  Level Indianapolis Center
03:50PM 39.3578 -85.2061 262° West 131 151 8,000  Level Indianapolis Center
03:51PM 39.3522 -85.2547 262° West 135 155 8,000  Level Indianapolis Center
03:52PM 39.3478 -85.3031 263° West 136 157 8,100  Climbing Indianapolis Center
03:53PM 39.3428 -85.3497 262° West 132 152 8,000 -60 Descending Indianapolis Center
03:54PM 39.3397 -85.3983 265° West 136 157 8,000  Level Indianapolis Center
03:55PM 39.3342 -85.4467 262° West 137 158 8,100  Climbing Indianapolis Center
03:56PM 39.3292 -85.4925 262° West 131 151 8,100  Level Indianapolis Center
03:57PM 39.3236 -85.5472 263° West 128 147 8,100  Level Indianapolis Center
03:59PM 39.3200 -85.5953 264° West 132 152 8,100  Level Indianapolis Center
04:00PM 39.3142 -85.6414 261° West 131 151 8,100  Level Indianapolis Center
04:01PM 39.3097 -85.6897 263° West 135 155 8,100  Level Indianapolis Center
04:02PM 39.3061 -85.7361 264° West 132 152 8,100  Level Indianapolis Center
04:03PM 39.3006 -85.7833 261° West 132 152 8,100  Level Indianapolis Center
04:04PM 39.2958 -85.8306 263° West 133 153 8,100  Level Indianapolis Center
04:05PM 39.2906 -85.8875 263° West 133 153 8,100  Level Indianapolis Center
04:06PM 39.2858 -85.9344 263° West 133 153 8,100  Level Indianapolis Center
04:07PM 39.2806 -85.9808 262° West 132 152 8,100  Level Indianapolis Center
04:08PM 39.2764 -86.0300 264° West 134 154 8,100  Level Indianapolis Center
04:09PM 39.2708 -86.0789 262° West 136 157 8,100  Level Indianapolis Center
04:10PM 39.2661 -86.1269 263° West 136 157 8,100  Level Indianapolis Center
04:11PM 39.2608 -86.1753 262° West 136 157 8,100  Level Indianapolis Center
04:12PM 39.2553 -86.2222 261° West 133 153 8,100  Level Indianapolis Center
04:13PM 39.2494 -86.2806 263° West 136 157 8,100  Level Indianapolis Center
04:14PM 39.2442 -86.3283 262° West 136 157 8,100  Level Indianapolis Center
04:15PM 39.2392 -86.3753 262° West 134 154 8,100  Level Indianapolis Center
04:16PM 39.2342 -86.4211 262° West 131 151 8,100  Level Indianapolis Center
04:17PM 39.2300 -86.4675 263° West 130 150 8,100  Level Indianapolis Center
04:18PM 39.2253 -86.5128 262° West 128 147 8,100  Level Indianapolis Center
04:19PM 39.2194 -86.5578 261° West 127 146 8,100  Level Indianapolis Center
04:20PM 39.2150 -86.6028 263° West 127 146 8,100  Level Indianapolis Center
04:21PM 39.2100 -86.6489 262° West 129 148 8,100  Level Indianapolis Center
04:22PM 39.2047 -86.7028 263° West 128 147 8,100  Level Indianapolis Center
04:23PM 39.1997 -86.7486 262° West 129 148 8,100  Level Indianapolis Center
04:24PM 39.1944 -86.7906 261° West 122 140 8,100  Level Indianapolis Center
04:25PM 39.1894 -86.8350 262° West 123 142 8,100  Level Indianapolis Center
04:26PM 39.1850 -86.8792 263° West 124 143 8,100  Level Indianapolis Center
04:27PM 39.1803 -86.9219 262° West 123 142 8,100  Level Indianapolis Center
04:28PM 39.1750 -86.9661 261° West 123 142 8,100  Level Indianapolis Center
04:29PM 39.1708 -87.0097 263° West 124 143 8,100  Level Indianapolis Center
04:30PM 39.1644 -87.0625 261° West 125 144 8,100  Level Indianapolis Center
04:31PM 39.1592 -87.1058 261° West 123 142 8,100  Level Indianapolis Center
04:32PM 39.1550 -87.1519 263° West 126 145 8,100  Level Indianapolis Center
04:33PM 39.1494 -87.1950 261° West 124 143 8,100  Level Indianapolis Center
04:34PM 39.1456 -87.2400 264° West 125 144 8,100  Level Indianapolis Center
04:35PM 39.1392 -87.2853 260° West 128 147 8,100  Level Indianapolis Center
04:36PM 39.1342 -87.3283 261° West 125 144 8,100  Level Indianapolis Center
04:38PM 39.1283 -87.3825 262° West 126 145 8,100  Level Indianapolis Center
04:39PM 39.1228 -87.4272 261° West 127 146 8,100  Level Indianapolis Center
04:40PM 39.1181 -87.4719 262° West 127 146 8,100  Level Indianapolis Center
04:41PM 39.1117 -87.5231 261° West 131 151 8,100  Level Indianapolis Center
04:42PM 39.1069 -87.5681 262° West 128 147 8,100  Level Indianapolis Center
04:43PM 39.1011 -87.6147 261° West 130 150 8,100  Level Indianapolis Center
04:44PM 39.0953 -87.6628 261° West 134 154 8,100  Level Indianapolis Center
04:45PM 39.0903 -87.7119 263° West 137 158 8,100  Level Indianapolis Center
04:46PM 39.0844 -87.7606 261° West 138 159 8,100  Level Indianapolis Center
04:47PM 39.0786 -87.8097 261° West 138 159 8,100  Level Indianapolis Center
04:48PM 39.0731 -87.8600 262° West 140 161 8,100  Level Indianapolis Center
04:49PM 39.0658 -87.9081 259° West 139 160 8,100  Level Indianapolis Center
04:50PM 39.0600 -87.9683 263° West 140 161 8,100  Level Indianapolis Center
04:51PM 39.0536 -88.0186 261° West 142 163 8,100  Level Indianapolis Center
04:52PM 39.0486 -88.0689 263° West 141 162 8,100  Level Indianapolis Center
04:53PM 39.0414 -88.1194 260° West 143 165 8,100  Level Indianapolis Center
04:54PM 39.0361 -88.1706 262° West 143 165 8,100  Level Indianapolis Center
04:55PM 39.0286 -88.2214 259° West 144 166 8,100  Level Indianapolis Center
04:56PM 39.0225 -88.2728 261° West 145 167 8,100  Level Indianapolis Center
04:57PM 39.0169 -88.3247 262° West 146 168 8,100  Level Indianapolis Center
04:58PM 39.0067 -88.3886 258° West 148 170 8,100  Level Kansas City Center
04:59PM 39.0011 -88.4394 262° West 145 167 8,100  Level Kansas City Center
05:00PM 38.9953 -88.4894 261° West 142 163 8,100  Level Kansas City Center
05:01PM 38.9878 -88.5508 261° West 144 166 8,100 -60 Level Kansas City Center
05:02PM 38.9811 -88.6014 260° West 144 166 8,000 -60 Descending Kansas City Center
05:03PM 38.9744 -88.6478 260° West 143 165 8,000  Level Kansas City Center
05:04PM 38.9681 -88.6969 261° West 140 161 8,000  Level Kansas City Center
05:05PM 38.9631 -88.7475 263° West 143 165 8,000  Level Kansas City Center
05:06PM 38.9567 -88.7953 260° West 139 160 8,000  Level Kansas City Center
05:07PM 38.9486 -88.8528 260° West 137 158 8,000  Level Kansas City Center
05:08PM 38.9425 -88.9033 261° West 141 162 8,000  Level Kansas City Center
05:09PM 38.9375 -88.9517 262° West 139 160 8,000  Level Kansas City Center
05:11PM 38.9311 -89.0042 261° West 140 161 8,000  Level Kansas City Center
05:12PM 38.9244 -89.0528 260° West 139 160 8,000  Level Kansas City Center
05:13PM 38.9178 -89.1056 261° West 139 160 8,000  Level Kansas City Center
05:14PM 38.9117 -89.1558 261° West 141 162 8,000  Level Kansas City Center
05:15PM 38.9047 -89.2042 260° West 139 160 8,000  Level Kansas City Center
05:16PM 38.8978 -89.2547 260° West 143 165 8,000  Level Kansas City Center
05:17PM 38.8917 -89.3100 262° West 145 167 8,000  Level Kansas City Center
05:18PM 38.8842 -89.3606 259° West 144 166 8,000  Level Kansas City Center
05:19PM 38.8778 -89.4106 261° West 143 165 8,000  Level Kansas City Center
05:20PM 38.8708 -89.4606 260° West 142 163 8,000  Level Kansas City Center
05:21PM 38.8636 -89.5147 260° West 143 165 8,000  Level Kansas City Center
05:22PM 38.8575 -89.5642 261° West 142 163 8,000  Level Kansas City Center
05:23PM 38.8511 -89.6131 260° West 141 162 8,000  Level Kansas City Center
05:24PM 38.8172 -89.6489 219° Southwest 153 176 8,000  Level Kansas City Center
05:25PM 38.7906 -89.6761 219° Southwest 149 171 8,000  Level Kansas City Center
05:26PM 38.7581 -89.7106 220° Southwest 150 173 8,000  Level Kansas City Center
05:27PM 38.7194 -89.7531 221° Southwest 152 175 8,000 -240 Level Kansas City Center
05:28PM 38.6914 -89.7922 227° Southwest 150 173 7,600 -420 Descending Kansas City Center
05:29PM 38.6711 -89.8383 241° Southwest 149 171 7,200 -480 Descending Kansas City Center
05:30PM 38.6614 -89.8889 256° West 148 170 6,700 -600 Descending Kansas City Center
05:31PM 38.6503 -89.9406 255° West 149 171 6,100 -600 Descending Kansas City Center
05:32PM 38.6553 -89.9936 277° West 152 175 5,500 -540 Descending Kansas City Center
05:33PM 38.6625 -90.0458 280° West 151 174 5,000 -540 Descending Kansas City Center
05:34PM 38.6697 -90.0981 280° West 150 173 4,500 -600 Descending Kansas City Center
05:35PM 38.6772 -90.1533 280° West 153 176 3,900 -600 Descending Kansas City Center
05:36PM 38.6847 -90.2058 280° West 153 176 3,300 -660 Descending Kansas City Center
05:37PM 38.6933 -90.2669 280° West 149 171 2,600 -540 Descending Kansas City Center
05:38PM 38.7028 -90.3164 284° West 145 167 2,300 -240 Descending Kansas City Center
05:39PM 38.7064 -90.3647 275° West 141 162 2,200 -60 Descending Kansas City Center
05:40PM 38.7094 -90.4081 275° West 137 158 2,200 -180 Level Kansas City Center
05:41PM 38.7139 -90.4542 277° West 134 154 1,900 -300 Descending Kansas City Center
05:42PM 38.7211 -90.5058 280° West 129 148 1,600 -180 Descending Kansas City Center
05:43PM 38.7217 -90.5472 271° West 127 146 1,600  Level Kansas City Center